Time;durP1;ratioP1;P1;durP2;ratioP2;P2;SDS_P1;SDS_P2;PMS_P1;PMS_P2;Temp;Humidity;BMP_temperature;BMP_pressure;BME280_temperature;BME280_humidity;BME280_pressure;Samples;Min_cycle;Max_cycle;Signal;HPM_P1;HPM_P2
2021/04/27 00:00:20;;;;;;;4.75;2.53;;;8.20;42.20;;;6.68;42.12;95321.91;4975818;28;20034;-71
2021/04/27 00:02:46;;;;;;;6.20;2.90;;;8.10;42.40;;;6.66;42.28;95313.44;4990530;28;20041;-71
2021/04/27 00:05:14;;;;;;;4.22;2.80;;;8.10;42.40;;;6.65;42.40;95319.69;4976544;28;20553;-70
2021/04/27 00:07:40;;;;;;;5.13;3.30;;;8.10;42.50;;;6.61;42.42;95310.59;4984017;28;20385;-71
2021/04/27 00:10:07;;;;;;;4.15;2.80;;;8.10;42.60;;;6.58;42.91;95307.53;4973858;28;20030;-70
2021/04/27 00:12:33;;;;;;;6.30;3.50;;;8.10;42.90;;;6.58;43.03;95300.50;4960743;28;20449;-70
2021/04/27 00:14:59;;;;;;;5.78;3.08;;;8.10;43.20;;;6.56;42.97;95310.31;4957231;28;20054;-70
2021/04/27 00:17:25;;;;;;;5.55;3.30;;;8.00;43.20;;;6.58;42.73;95308.34;4974876;28;20804;-70
2021/04/27 00:19:50;;;;;;;4.55;3.20;;;8.10;43.20;;;6.56;43.21;95305.09;4998626;28;20532;-70
2021/04/27 00:22:16;;;;;;;5.10;2.92;;;8.10;43.40;;;6.55;42.90;95300.84;4963424;28;20473;-70
2021/04/27 00:24:42;;;;;;;6.53;3.20;;;8.00;43.60;;;6.50;42.99;95300.59;4977286;28;20705;-71
2021/04/27 00:27:07;;;;;;;6.65;3.60;;;8.10;43.80;;;6.49;43.55;95303.38;4988863;28;20104;-70
2021/04/27 00:29:33;;;;;;;5.97;3.50;;;8.00;44.00;;;6.46;42.99;95294.13;4973779;28;20509;-71
2021/04/27 00:31:59;;;;;;;5.30;3.50;;;7.90;44.10;;;6.44;44.13;95290.88;4964852;28;20068;-70
2021/04/27 00:34:25;;;;;;;5.25;3.00;;;7.90;44.50;;;6.39;44.18;95282.78;4967816;28;20355;-70
2021/04/27 00:36:50;;;;;;;5.53;3.75;;;7.90;44.50;;;6.40;44.36;95287.03;4976130;28;20054;-71
2021/04/27 00:39:16;;;;;;;6.85;3.38;;;7.90;44.70;;;6.39;44.15;95290.63;4972865;28;20034;-70
2021/04/27 00:41:42;;;;;;;5.45;3.80;;;7.90;44.90;;;6.36;44.76;95283.97;4981772;28;20065;-70
2021/04/27 00:44:08;;;;;;;8.82;4.22;;;7.80;45.00;;;6.38;45.05;95281.19;4977782;28;20706;-71
2021/04/27 00:46:34;;;;;;;6.97;3.60;;;7.80;45.20;;;6.36;44.45;95283.97;4959190;28;20033;-70
2021/04/27 00:48:59;;;;;;;7.90;3.95;;;7.80;45.30;;;6.34;44.59;95285.97;4994279;28;20038;-71
2021/04/27 00:51:25;;;;;;;7.05;3.88;;;7.80;45.50;;;6.32;45.15;95281.88;4997264;28;20042;-71
2021/04/27 00:53:51;;;;;;;6.53;4.60;;;7.80;45.80;;;6.30;44.68;95278.66;4998845;28;20065;-71
2021/04/27 00:56:19;;;;;;;5.88;3.95;;;7.70;45.80;;;6.29;45.53;95277.84;4977076;28;20037;-70
2021/04/27 00:58:45;;;;;;;6.55;4.15;;;7.70;46.00;;;6.28;45.36;95283.25;4996606;28;20034;-70
2021/04/27 01:01:12;;;;;;;7.05;4.00;;;7.70;46.00;;;6.28;45.57;95280.63;4979126;28;20132;-70
2021/04/27 01:03:39;;;;;;;11.23;4.55;;;7.80;46.10;;;6.26;45.42;95282.63;4977275;28;20034;-70
2021/04/27 01:06:05;;;;;;;5.40;3.95;;;7.70;46.30;;;6.25;45.65;95278.38;4947632;28;20048;-68
2021/04/27 01:08:45;;;;;;;6.15;4.15;;;7.80;46.40;;;6.22;46.88;95276.16;4992683;28;20038;-71
2021/04/27 01:11:24;;;;;;;6.22;4.28;;;7.70;46.50;;;6.18;45.97;95286.16;4980893;28;20046;-71
2021/04/27 01:14:16;;;;;;;7.22;4.35;;;7.70;46.70;;;6.12;47.35;95285.09;4989172;28;20739;-71
2021/04/27 01:16:54;;;;;;;8.07;4.72;;;7.60;46.90;;;6.08;47.54;95280.38;4980598;28;20045;-71
2021/04/27 01:19:34;;;;;;;6.65;4.50;;;7.60;47.10;;;6.05;47.91;95284.16;4943564;28;20037;-70
2021/04/27 01:21:59;;;;;;;7.72;4.35;;;7.50;47.30;;;5.99;47.02;95287.50;4977096;28;20041;-68
2021/04/27 01:24:49;;;;;;;8.60;4.90;;;7.50;47.60;;;6.00;48.59;95283.91;4989868;28;20735;-68
2021/04/27 01:27:14;;;;;;;8.68;4.78;;;7.50;47.80;;;5.99;46.72;95282.28;4988247;28;20042;-68
2021/04/27 01:29:40;;;;;;;8.32;4.70;;;7.50;48.10;;;5.99;46.76;95286.69;4954764;28;20030;-68
2021/04/27 01:32:06;;;;;;;7.18;4.97;;;7.40;48.80;;;5.93;47.42;95283.00;5005505;28;20183;-68
2021/04/27 01:34:36;;;;;;;11.85;5.18;;;7.40;49.10;;;5.88;47.89;95285.28;4982805;28;20585;-69
2021/04/27 01:37:04;;;;;;;7.13;4.75;;;7.20;49.30;;;5.83;48.27;95282.41;4976027;28;20501;-68
2021/04/27 01:39:30;;;;;;;6.95;4.97;;;7.20;49.50;;;5.79;47.58;95291.59;4984351;28;20405;-68
2021/04/27 01:41:58;;;;;;;9.77;5.13;;;7.20;49.70;;;5.71;47.86;95279.47;4960237;28;20069;-68
2021/04/27 01:44:24;;;;;;;8.27;5.18;;;7.10;49.80;;;5.66;48.12;95278.34;4941291;28;20077;-68
2021/04/27 01:46:50;;;;;;;7.20;4.90;;;7.00;49.90;;;5.58;48.51;95276.66;4975923;28;20569;-70
2021/04/27 01:49:15;;;;;;;8.15;5.05;;;7.00;50.30;;;5.50;48.73;95279.34;5002544;28;20064;-70
2021/04/27 01:51:41;;;;;;;10.18;4.90;;;6.90;50.50;;;5.41;49.27;95273.38;4973934;28;20537;-68
2021/04/27 01:54:07;;;;;;;7.72;5.25;;;6.90;50.50;;;5.37;49.25;95276.50;4979315;28;20718;-69
2021/04/27 01:56:34;;;;;;;8.55;4.78;;;6.80;50.60;;;5.31;49.06;95258.97;4973976;28;20033;-70
2021/04/27 01:59:00;;;;;;;9.05;4.97;;;6.80;50.80;;;5.27;49.55;95260.31;4978506;28;20030;-68
2021/04/27 02:01:26;;;;;;;6.90;4.35;;;6.70;50.70;;;5.26;49.59;95259.50;4974393;28;20034;-68
2021/04/27 02:03:51;;;;;;;7.75;4.43;;;6.80;50.70;;;5.22;49.43;95260.88;5003706;28;20042;-70
2021/04/27 02:06:17;;;;;;;6.05;4.43;;;6.70;50.80;;;5.18;49.82;95246.53;4983594;28;20051;-68
2021/04/27 02:08:59;;;;;;;10.13;4.40;;;6.70;50.70;;;5.14;51.41;95260.91;4962273;28;20362;-68
2021/04/27 02:11:25;;;;;;;7.18;4.40;;;6.70;50.90;;;5.10;49.97;95262.25;4976898;28;20061;-68
2021/04/27 02:13:50;;;;;;;6.47;3.95;;;6.60;51.00;;;5.04;50.02;95258.56;4949970;28;20111;-68
2021/04/27 02:16:16;;;;;;;8.45;3.72;;;6.50;51.20;;;5.03;50.34;95259.53;4989790;28;20119;-69
2021/04/27 02:18:54;;;;;;;6.15;3.83;;;6.50;51.40;;;5.03;51.47;95258.75;4968315;28;20036;-69
2021/04/27 02:21:20;;;;;;;7.10;3.90;;;6.50;51.40;;;4.97;50.10;95255.00;4984313;28;20037;-69
2021/04/27 02:23:46;;;;;;;7.15;4.00;;;6.50;51.40;;;4.95;50.17;95253.56;4982878;28;20421;-68
2021/04/27 02:26:14;;;;;;;5.28;3.63;;;6.50;51.10;;;4.92;50.80;95263.34;4977212;28;20593;-68
2021/04/27 02:28:41;;;;;;;5.72;3.72;;;6.50;51.00;;;4.90;49.93;95265.31;4994977;28;20037;-68
2021/04/27 02:31:07;;;;;;;9.60;4.00;;;6.40;51.00;;;4.89;50.22;95258.50;4976040;28;20030;-68
2021/04/27 02:33:34;;;;;;;6.72;3.90;;;6.40;51.10;;;4.87;50.13;95254.44;4986992;28;20033;-68
2021/04/27 02:36:00;;;;;;;10.57;3.90;;;6.40;51.00;;;4.83;50.05;95258.41;4988635;28;20034;-68
2021/04/27 02:38:26;;;;;;;4.95;3.50;;;6.30;50.90;;;4.81;50.17;95245.53;4954627;28;20486;-68
2021/04/27 02:40:53;;;;;;;5.28;3.15;;;6.30;50.80;;;4.81;50.25;95249.94;4976898;28;20072;-69
2021/04/27 02:43:19;;;;;;;7.53;3.55;;;6.30;50.60;;;4.79;49.59;95255.31;4981802;28;20033;-69
2021/04/27 02:45:45;;;;;;;5.07;3.63;;;6.30;50.30;;;4.74;49.87;95249.00;4990829;28;20410;-69
2021/04/27 02:48:14;;;;;;;9.05;3.80;;;6.30;50.10;;;4.75;50.20;95245.41;4972887;28;20061;-69
2021/04/27 02:50:42;;;;;;;5.43;3.50;;;6.30;49.90;;;4.73;49.84;95237.75;4947799;28;20049;-68
2021/04/27 02:53:10;;;;;;;6.07;3.90;;;6.30;49.80;;;4.68;49.67;95228.84;4962560;28;20057;-69
2021/04/27 02:55:36;;;;;;;5.60;3.42;;;6.20;49.90;;;4.67;50.03;95233.25;4968339;28;20034;-70
2021/04/27 02:58:01;;;;;;;6.10;3.80;;;6.30;50.00;;;4.65;49.90;95235.22;4996627;28;20041;-68
2021/04/27 03:00:27;;;;;;;6.28;3.22;;;6.30;49.90;;;4.63;49.84;95232.00;4989603;28;20034;-69
2021/04/27 03:02:53;;;;;;;6.10;3.85;;;6.20;49.90;;;4.61;49.81;95228.75;4981429;28;20037;-69
2021/04/27 03:05:19;;;;;;;7.10;3.75;;;6.20;49.90;;;4.63;50.08;95231.19;4970445;28;20072;-69
2021/04/27 03:07:44;;;;;;;6.32;3.78;;;6.20;50.20;;;4.59;50.03;95230.72;4969106;28;20212;-69
2021/04/27 03:10:11;;;;;;;5.57;3.42;;;6.20;50.00;;;4.58;50.24;95229.09;4985887;28;20054;-69
2021/04/27 03:12:37;;;;;;;5.45;3.38;;;6.10;50.30;;;4.58;49.99;95229.91;4944437;28;20117;-67
2021/04/27 03:15:04;;;;;;;8.48;3.53;;;6.10;50.20;;;4.56;50.05;95233.69;4973314;28;20161;-68
2021/04/27 03:17:30;;;;;;;6.13;3.38;;;6.10;50.60;;;4.56;50.21;95226.66;4983600;28;20045;-69
2021/04/27 03:19:56;;;;;;;4.57;3.30;;;6.10;50.30;;;4.57;49.90;95219.66;5004637;28;20065;-69
2021/04/27 03:22:22;;;;;;;5.28;3.78;;;6.10;50.50;;;4.56;50.34;95226.66;4982868;28;20165;-70
2021/04/27 03:24:47;;;;;;;5.95;3.72;;;6.10;50.60;;;4.55;50.20;95224.25;4986905;28;20074;-67
2021/04/27 03:27:13;;;;;;;8.30;4.00;;;6.10;50.90;;;4.53;50.64;95226.22;4974427;28;20038;-69
2021/04/27 03:29:39;;;;;;;6.47;3.70;;;6.10;50.90;;;4.48;50.48;95233.72;4988969;28;20061;-69
2021/04/27 03:32:05;;;;;;;9.48;4.22;;;6.10;51.00;;;4.47;50.58;95221.69;4956447;28;20076;-70
2021/04/27 03:34:30;;;;;;;6.25;3.72;;;6.10;51.10;;;4.44;50.90;95222.03;4972792;28;20084;-69
2021/04/27 03:36:56;;;;;;;5.55;4.10;;;6.00;51.40;;;4.41;50.92;95217.97;4956764;28;20037;-70
2021/04/27 03:39:22;;;;;;;5.80;3.90;;;6.00;51.40;;;4.41;50.83;95227.56;4987897;28;20096;-69
2021/04/27 03:41:47;;;;;;;5.72;4.00;;;5.90;51.70;;;4.37;50.89;95215.91;5008304;28;20061;-70
2021/04/27 03:44:13;;;;;;;6.60;3.88;;;5.90;51.30;;;4.33;51.03;95212.81;5000203;28;20038;-69
2021/04/27 03:46:39;;;;;;;6.47;3.88;;;5.90;51.40;;;4.28;50.92;95218.53;4972130;28;20069;-70
2021/04/27 03:49:05;;;;;;;6.90;4.07;;;5.80;51.60;;;4.22;51.09;95226.22;4971930;28;20037;-72
2021/04/27 03:51:30;;;;;;;6.97;3.67;;;5.80;51.00;;;4.18;51.20;95217.94;4987011;28;20061;-70
2021/04/27 03:53:56;;;;;;;7.07;4.50;;;5.80;51.20;;;4.15;51.33;95213.09;4981240;28;20038;-69
2021/04/27 03:56:22;;;;;;;9.13;4.53;;;5.80;51.00;;;4.11;51.09;95217.00;4987935;28;20132;-70
2021/04/27 03:58:48;;;;;;;6.78;3.78;;;5.80;51.00;;;4.07;50.80;95213.09;4988815;28;20034;-70
2021/04/27 04:01:13;;;;;;;7.60;4.40;;;5.70;51.10;;;4.03;51.42;95211.84;4972852;28;20498;-69
2021/04/27 04:03:40;;;;;;;8.93;4.63;;;5.70;51.30;;;4.00;51.33;95218.19;5005489;28;20056;-70
2021/04/27 04:06:05;;;;;;;6.32;4.30;;;5.70;51.30;;;3.98;51.30;95212.34;4956983;28;20046;-66
2021/04/27 04:08:32;;;;;;;6.15;4.43;;;5.60;51.40;;;3.97;51.42;95212.53;4941485;28;20066;-69
2021/04/27 04:10:58;;;;;;;7.35;4.45;;;5.70;51.40;;;3.97;51.60;95215.94;4976753;28;20042;-70
2021/04/27 04:13:23;;;;;;;8.77;4.72;;;5.70;51.40;;;3.99;51.24;95210.56;4976614;28;20576;-69
2021/04/27 04:15:49;;;;;;;7.50;4.90;;;5.70;51.40;;;3.98;51.61;95209.75;4978542;28;20038;-71
2021/04/27 04:18:15;;;;;;;7.28;4.70;;;5.60;51.40;;;3.97;51.51;95220.31;4980788;28;20042;-71
2021/04/27 04:20:41;;;;;;;5.35;4.07;;;5.60;51.30;;;3.93;51.81;95217.25;4973052;28;20029;-72
2021/04/27 04:23:06;;;;;;;6.22;4.28;;;5.60;51.20;;;3.89;51.69;95218.56;4988122;28;20518;-70
2021/04/27 04:25:32;;;;;;;14.38;4.03;;;5.60;51.30;;;3.87;51.56;95217.13;4988691;28;20045;-72
2021/04/27 04:27:58;;;;;;;7.07;4.60;;;5.60;51.10;;;3.86;51.77;95216.31;4975214;28;20120;-71
2021/04/27 04:30:24;;;;;;;6.32;4.68;;;5.60;51.40;;;3.87;51.83;95219.72;4993739;28;20034;-70
2021/04/27 04:32:51;;;;;;;7.57;4.70;;;5.60;51.50;;;3.85;52.20;95221.69;4956572;28;20139;-69
2021/04/27 04:35:21;;;;;;;10.30;4.60;;;5.60;51.60;;;3.85;52.35;95221.69;4972476;28;20037;-70
2021/04/27 04:37:47;;;;;;;6.85;4.22;;;5.60;51.60;;;3.83;52.02;95208.81;4972881;28;20442;-72
2021/04/27 04:40:14;;;;;;;5.97;4.45;;;5.60;51.60;;;3.83;51.85;95211.44;4952837;28;20100;-71
2021/04/27 04:42:40;;;;;;;11.00;5.13;;;5.60;51.60;;;3.85;52.27;95216.50;4983549;28;20426;-70
2021/04/27 04:45:07;;;;;;;6.82;4.75;;;5.70;51.60;;;3.90;52.00;95216.78;4968690;28;20438;-69
2021/04/27 04:47:32;;;;;;;8.20;4.50;;;5.70;51.50;;;3.92;52.40;95212.22;4976216;28;20070;-70
2021/04/27 04:49:58;;;;;;;6.40;4.78;;;5.70;51.30;;;3.97;52.07;95215.13;4954466;28;20073;-71
2021/04/27 04:52:24;;;;;;;8.32;4.68;;;5.80;51.20;;;4.00;51.84;95209.56;4987494;28;20061;-71
2021/04/27 04:54:50;;;;;;;6.53;4.30;;;5.80;51.10;;;3.99;51.66;95213.16;5003064;28;20096;-66
2021/04/27 04:57:15;;;;;;;7.50;4.90;;;5.80;50.90;;;4.04;52.13;95216.06;4988243;28;20026;-71
2021/04/27 04:59:41;;;;;;;8.88;4.90;;;5.90;50.90;;;4.11;51.79;95214.41;4938347;28;20038;-67
2021/04/27 05:02:07;;;;;;;10.48;4.60;;;6.00;50.70;;;4.15;51.78;95218.28;5008138;28;20094;-68
2021/04/27 05:04:32;;;;;;;11.13;5.00;;;6.10;50.60;;;4.19;51.60;95208.34;5009446;28;20045;-67
2021/04/27 05:07:03;;;;;;;6.90;4.47;;;6.10;50.50;;;4.24;51.96;95206.84;4975021;28;20038;-66
2021/04/27 05:09:29;;;;;;;7.90;4.47;;;6.20;50.10;;;4.28;51.46;95205.50;4978981;28;20084;-67
2021/04/27 05:11:56;;;;;;;7.90;4.20;;;6.20;49.30;;;4.38;50.92;95217.50;5007920;28;20025;-72
2021/04/27 05:14:22;;;;;;;6.65;4.63;;;6.30;49.30;;;4.43;50.97;95203.00;4990735;28;20034;-74
2021/04/27 05:16:48;;;;;;;8.90;4.22;;;6.40;49.00;;;4.53;51.03;95214.00;4961442;28;20447;-76
2021/04/27 05:19:13;;;;;;;6.95;4.40;;;6.50;48.70;;;4.61;50.89;95213.13;4976636;28;20202;-67
2021/04/27 05:21:39;;;;;;;8.65;4.75;;;6.60;48.80;;;4.71;50.54;95211.09;4991701;28;20041;-75
2021/04/27 05:24:06;;;;;;;9.70;4.95;;;6.70;48.10;;;4.80;50.43;95217.88;4992031;28;20073;-73
2021/04/27 05:26:32;;;;;;;7.38;5.15;;;6.90;48.10;;;4.90;50.37;95223.63;4976396;28;20040;-73
2021/04/27 05:28:58;;;;;;;10.27;4.75;;;7.00;47.60;;;5.01;50.04;95216.41;4958227;28;20576;-73
2021/04/27 05:31:24;;;;;;;11.50;4.28;;;7.10;47.10;;;5.12;50.13;95218.56;4969650;28;20064;-70
2021/04/27 05:33:50;;;;;;;5.68;4.43;;;7.30;46.90;;;5.24;49.90;95219.78;4998451;28;20068;-72
2021/04/27 05:36:15;;;;;;;6.15;4.45;;;7.40;47.10;;;5.39;49.54;95220.59;4990378;28;20148;-68
2021/04/27 05:38:41;;;;;;;7.72;4.35;;;7.60;46.30;;;5.53;49.52;95213.78;4993185;28;20071;-72
2021/04/27 05:41:07;;;;;;;6.75;4.72;;;7.80;45.00;;;5.67;49.29;95217.38;4977213;28;20033;-72
2021/04/27 05:43:32;;;;;;;6.22;4.60;;;7.90;45.20;;;5.80;48.96;95217.56;4976409;28;20512;-70
2021/04/27 05:45:58;;;;;;;8.52;4.75;;;8.10;44.60;;;5.92;48.83;95221.38;4989731;28;20561;-70
2021/04/27 05:48:24;;;;;;;6.85;4.55;;;8.20;44.30;;;6.04;48.71;95216.47;4975989;28;20544;-74
2021/04/27 05:50:50;;;;;;;7.15;4.82;;;8.40;43.90;;;6.23;48.63;95217.72;4970894;28;20070;-75
2021/04/27 05:53:15;;;;;;;9.00;4.50;;;8.60;43.90;;;6.35;48.63;95209.22;4976185;28;20038;-70
2021/04/27 05:55:41;;;;;;;8.88;4.90;;;8.80;43.70;;;6.49;47.78;95210.16;4990870;28;20418;-73
2021/04/27 05:58:08;;;;;;;6.82;4.40;;;9.00;43.00;;;6.67;47.52;95202.72;4974092;28;20113;-68
2021/04/27 06:00:35;;;;;;;7.05;4.18;;;9.30;42.40;;;6.87;47.69;95210.72;4991517;28;20402;-70
2021/04/27 06:03:01;;;;;;;9.00;4.63;;;9.50;41.70;;;7.05;47.32;95199.84;4976200;28;20469;-75
2021/04/27 06:05:26;;;;;;;7.45;4.38;;;9.70;41.20;;;7.19;46.82;95196.31;4992570;28;20054;-69
2021/04/27 06:07:52;;;;;;;5.72;4.00;;;10.00;40.50;;;7.33;46.89;95198.03;4992115;28;20063;-69
2021/04/27 06:10:18;;;;;;;11.10;4.80;;;10.20;39.80;;;7.51;46.75;95194.13;4959220;28;20038;-74
2021/04/27 06:12:44;;;;;;;10.45;4.43;;;10.50;39.40;;;7.73;46.42;95192.25;4964324;28;20121;-75
2021/04/27 06:15:10;;;;;;;9.70;4.25;;;10.80;38.70;;;7.94;46.53;95190.34;4961276;28;20162;-74
2021/04/27 06:17:36;;;;;;;10.90;3.95;;;11.10;38.50;;;8.17;45.58;95202.31;4975965;28;20029;-70
2021/04/27 06:20:05;;;;;;;8.43;4.40;;;11.40;37.70;;;8.36;44.78;95188.47;4976445;28;20086;-68
2021/04/27 06:22:31;;;;;;;7.93;4.13;;;11.60;37.00;;;8.48;44.90;95207.06;4959459;28;20068;-69
2021/04/27 06:24:56;;;;;;;8.25;4.60;;;11.70;37.00;;;8.61;44.94;95195.84;4969135;28;20053;-74
2021/04/27 06:27:24;;;;;;;11.73;4.88;;;11.90;36.90;;;8.76;44.75;95201.69;5007754;28;20178;-69
2021/04/27 06:29:50;;;;;;;10.65;4.53;;;12.10;36.10;;;8.92;44.45;95198.69;4976642;28;20065;-74
2021/04/27 06:32:16;;;;;;;11.68;4.85;;;12.40;35.70;;;9.07;44.15;95185.41;4974115;28;20069;-68
2021/04/27 06:34:42;;;;;;;11.57;4.72;;;12.70;35.60;;;9.23;43.99;95189.41;4991611;28;20038;-70
2021/04/27 06:37:08;;;;;;;7.10;4.38;;;12.80;35.10;;;9.38;43.32;95184.75;4975012;28;20585;-69
2021/04/27 06:39:33;;;;;;;6.85;4.40;;;13.10;34.80;;;9.49;43.50;95189.38;5007658;28;20026;-73
2021/04/27 06:41:59;;;;;;;11.82;4.60;;;13.10;34.90;;;9.64;43.47;95182.09;4975918;28;20133;-68
2021/04/27 06:44:25;;;;;;;9.60;4.60;;;13.20;34.70;;;9.78;43.60;95191.56;4963150;28;20058;-73
2021/04/27 06:46:51;;;;;;;9.30;4.78;;;13.50;34.90;;;9.93;42.98;95190.50;5004711;28;20053;-70
2021/04/27 06:49:16;;;;;;;7.28;4.78;;;13.60;34.40;;;10.07;43.12;95192.06;4975113;28;20050;-65
2021/04/27 06:51:42;;;;;;;10.65;4.72;;;13.90;34.00;;;10.24;42.60;95195.88;4972557;28;20066;-74
2021/04/27 06:54:08;;;;;;;8.77;4.80;;;14.10;33.70;;;10.41;42.80;95185.72;4990746;28;20065;-75
2021/04/27 06:56:33;;;;;;;15.95;4.80;;;14.40;33.40;;;10.56;42.89;95186.22;4971167;28;20117;-70
2021/04/27 06:58:59;;;;;;;13.30;5.35;;;14.60;33.20;;;10.76;42.91;95180.84;4982346;28;20136;-67
2021/04/27 07:01:25;;;;;;;8.75;4.20;;;14.80;33.20;;;10.88;41.30;95181.78;4993025;28;20037;-72
2021/04/27 07:03:51;;;;;;;8.30;4.88;;;14.80;32.80;;;11.03;41.64;95177.00;4975280;28;20654;-73
2021/04/27 07:06:16;;;;;;;11.60;4.70;;;15.10;32.70;;;11.19;41.22;95180.13;4963330;28;20050;-72
2021/04/27 07:08:42;;;;;;;8.27;4.93;;;15.30;32.50;;;11.34;41.29;95178.00;4971985;28;20042;-69
2021/04/27 07:11:09;;;;;;;8.07;4.82;;;15.50;32.10;;;11.55;41.22;95174.97;4971899;28;20030;-71
2021/04/27 07:13:35;;;;;;;7.85;4.35;;;15.80;31.60;;;11.73;41.71;95179.41;4979976;28;20084;-67
2021/04/27 07:16:02;;;;;;;6.65;4.25;;;15.90;31.20;;;11.90;41.43;95163.88;4991176;28;20042;-67
2021/04/27 07:18:27;;;;;;;8.65;4.80;;;16.10;31.20;;;12.12;40.14;95172.94;4979763;28;20212;-66
2021/04/27 07:20:53;;;;;;;8.82;4.90;;;16.40;31.10;;;12.30;40.12;95171.31;4973825;28;20031;-70
2021/04/27 07:23:19;;;;;;;11.10;4.65;;;16.60;30.80;;;12.52;39.61;95161.91;5002521;28;20113;-68
2021/04/27 07:25:45;;;;;;;6.40;4.60;;;16.90;30.10;;;12.72;40.11;95159.81;4942580;28;20545;-69
2021/04/27 07:28:10;;;;;;;8.13;4.10;;;17.10;29.50;;;12.89;39.76;95160.75;4973677;28;20405;-69
2021/04/27 07:30:36;;;;;;;9.43;4.85;;;17.20;29.60;;;13.10;39.43;95155.97;4954616;28;20043;-71
2021/04/27 07:33:02;;;;;;;9.00;4.68;;;17.50;29.20;;;13.22;38.90;95154.19;4990538;28;20587;-71
2021/04/27 07:35:28;;;;;;;9.95;4.60;;;17.50;29.00;;;13.32;38.86;95157.06;4958365;28;20034;-68
2021/04/27 07:37:54;;;;;;;7.63;4.20;;;17.70;28.80;;;13.47;38.48;95157.41;4990362;28;20065;-67
2021/04/27 07:40:20;;;;;;;10.90;4.78;;;17.70;28.70;;;13.58;38.33;95155.81;4970655;28;20125;-65
2021/04/27 07:42:46;;;;;;;10.95;5.00;;;18.00;28.40;;;13.72;38.55;95153.72;4969795;28;20107;-73
2021/04/27 07:45:14;;;;;;;7.50;4.55;;;18.30;28.10;;;13.85;37.58;95148.22;4975562;28;20505;-63
2021/04/27 07:47:40;;;;;;;12.50;5.00;;;18.20;27.80;;;13.97;36.98;95156.91;4990146;28;20029;-65
2021/04/27 07:50:06;;;;;;;7.10;4.80;;;18.50;27.70;;;14.08;36.94;95148.16;4957472;28;20037;-66
2021/04/27 07:52:33;;;;;;;7.95;4.32;;;18.60;27.90;;;14.28;37.11;95158.34;4990058;28;20033;-64
2021/04/27 07:55:00;;;;;;;7.85;4.82;;;18.90;27.90;;;14.52;37.48;95142.44;4974996;28;20049;-64
2021/04/27 07:57:25;;;;;;;8.85;5.15;;;19.20;27.30;;;14.62;37.63;95143.41;4945337;28;20608;-72
2021/04/27 07:59:51;;;;;;;6.85;4.18;;;19.10;27.50;;;14.81;36.86;95149.28;4961721;28;20045;-72
2021/04/27 08:02:17;;;;;;;9.88;4.63;;;19.50;27.20;;;15.05;37.10;95151.81;4990847;28;20041;-63
2021/04/27 08:04:45;;;;;;;8.15;4.45;;;19.70;27.10;;;15.27;36.77;95140.25;4979761;28;20038;-70
2021/04/27 08:07:11;;;;;;;9.50;5.13;;;19.80;26.60;;;15.36;36.17;95137.19;4974357;28;20081;-69
2021/04/27 08:09:37;;;;;;;11.23;4.50;;;19.70;27.00;;;15.61;36.13;95142.91;4989831;28;20026;-73
2021/04/27 08:12:03;;;;;;;10.40;4.55;;;20.10;26.70;;;15.84;36.81;95145.38;4967531;28;20066;-74
2021/04/27 08:14:29;;;;;;;8.57;5.38;;;20.50;26.30;;;16.02;35.12;95148.75;4972756;28;20149;-73
2021/04/27 08:16:55;;;;;;;9.90;4.93;;;20.50;25.90;;;16.23;35.27;95142.66;4973376;28;20112;-69
2021/04/27 08:19:20;;;;;;;9.35;4.85;;;20.90;25.70;;;16.42;34.45;95130.69;4974142;28;20053;-71
2021/04/27 08:21:46;;;;;;;9.13;4.75;;;21.20;25.40;;;16.58;35.94;95138.81;4990093;28;20049;-72
2021/04/27 08:24:12;;;;;;;18.10;5.55;;;21.50;25.40;;;16.79;35.23;95135.34;4973422;28;20080;-71
2021/04/27 08:26:38;;;;;;;7.60;5.20;;;21.70;25.20;;;16.94;34.78;95132.00;5007242;28;20064;-68
2021/04/27 08:29:04;;;;;;;8.18;4.75;;;21.80;24.80;;;17.08;34.22;95135.88;5005080;28;20072;-71
2021/04/27 08:31:29;;;;;;;7.50;4.90;;;21.90;24.20;;;17.17;33.56;95125.56;4989107;28;20867;-71
2021/04/27 08:33:55;;;;;;;11.02;5.72;;;22.10;24.20;;;17.40;33.58;95130.53;4961403;28;20267;-70
2021/04/27 08:36:21;;;;;;;9.75;5.22;;;22.50;24.20;;;17.49;33.33;95121.03;4957544;28;20462;-73
2021/04/27 08:38:47;;;;;;;7.85;4.95;;;22.50;23.90;;;17.70;33.43;95135.28;4963310;28;20038;-73
2021/04/27 08:41:13;;;;;;;10.07;5.10;;;22.90;24.30;;;17.85;33.55;95131.91;4988287;28;20163;-69
2021/04/27 08:43:38;;;;;;;10.32;5.00;;;22.80;24.10;;;18.05;33.25;95126.69;4992285;28;20443;-68
2021/04/27 08:46:04;;;;;;;9.00;4.95;;;23.10;23.70;;;18.28;32.81;95130.78;4978211;28;20049;-67
2021/04/27 08:48:30;;;;;;;7.35;4.78;;;23.30;23.30;;;18.46;32.33;95137.50;4993702;28;20057;-71
2021/04/27 08:50:56;;;;;;;7.50;4.63;;;23.50;23.30;;;18.68;32.52;95138.13;4976045;28;20058;-73
2021/04/27 08:53:22;;;;;;;8.32;4.72;;;23.60;23.50;;;18.88;32.93;95130.19;4978942;28;20034;-72
2021/04/27 08:55:48;;;;;;;12.35;5.55;;;23.80;23.30;;;19.07;32.52;95132.34;4978534;28;20076;-68
2021/04/27 08:58:14;;;;;;;6.78;4.68;;;24.00;23.10;;;19.28;32.14;95121.41;4960622;28;20084;-69
2021/04/27 09:00:42;;;;;;;6.75;4.97;;;24.10;23.00;;;19.46;31.75;95122.75;4978299;28;20532;-69
2021/04/27 09:03:09;;;;;;;8.68;4.97;;;24.20;22.60;;;19.51;31.36;95112.06;4991687;28;20045;-72
2021/04/27 09:05:40;;;;;;;7.70;4.97;;;24.10;23.00;;;19.69;29.61;95115.25;4981063;28;20082;-70
2021/04/27 09:08:06;;;;;;;10.93;5.28;;;24.20;22.70;;;19.77;30.20;95114.72;4971598;28;20038;-72
2021/04/27 09:10:44;;;;;;;8.90;5.00;;;24.10;21.80;;;19.88;29.01;95111.72;4978285;28;20038;-74
2021/04/27 09:13:10;;;;;;;7.50;5.10;;;24.20;22.30;;;19.94;30.79;95115.22;4978643;28;20125;-73
2021/04/27 09:15:41;;;;;;;8.02;5.57;;;24.10;22.60;;;20.09;29.92;95107.13;4974299;28;20121;-68
2021/04/27 09:18:28;;;;;;;8.35;5.20;;;24.30;22.70;;;20.28;29.49;95109.19;4990276;28;20133;-68
2021/04/27 09:21:06;;;;;;;10.20;5.15;;;24.30;22.60;;;20.38;29.63;95109.16;5011743;28;20045;-69
2021/04/27 09:23:34;;;;;;;8.27;5.03;;;24.60;22.50;;;20.56;30.03;95105.88;5011091;28;20049;-74
2021/04/27 09:26:17;;;;;;;7.13;4.88;;;24.80;22.00;;;20.83;27.89;95099.34;5011131;28;20489;-72
2021/04/27 09:28:51;;;;;;;8.82;5.65;;;25.10;21.60;;;21.01;28.21;95098.66;4975967;28;20034;-67
2021/04/27 09:31:31;;;;;;;10.57;4.85;;;25.10;21.50;;;21.10;28.48;95094.31;4993709;28;20030;-67
2021/04/27 09:34:30;;;;;;;6.77;4.63;;;25.30;21.80;;;21.27;27.09;95092.03;4976367;28;20077;-73
2021/04/27 09:36:57;;;;;;;33.47;5.90;;;25.30;21.20;;;21.37;28.92;95086.63;4991699;28;20248;-69
2021/04/27 09:39:43;;;;;;;9.30;4.97;;;25.40;21.30;;;21.57;27.33;95082.97;4993762;28;20112;-67
2021/04/27 09:42:18;;;;;;;9.05;5.50;;;25.70;21.10;;;21.67;27.32;95077.50;4959756;28;20038;-76
2021/04/27 09:44:50;;;;;;;17.83;5.43;;;25.70;21.30;;;21.74;27.42;95077.19;4977290;28;20048;-71
2021/04/27 09:47:25;;;;;;;10.23;5.38;;;25.90;20.80;;;21.90;26.32;95081.25;4961104;28;20528;-68
2021/04/27 09:50:08;;;;;;;7.53;5.28;;;26.10;20.40;;;21.91;26.74;95088.22;4986589;28;20536;-68
2021/04/27 09:52:43;;;;;;;10.45;5.38;;;26.10;20.60;;;21.73;26.33;95075.59;4977040;28;20034;-70
2021/04/27 09:55:17;;;;;;;8.88;5.30;;;25.80;20.90;;;21.84;27.49;95085.09;5010529;28;20026;-68
2021/04/27 09:57:53;;;;;;;8.30;5.28;;;26.30;20.60;;;22.08;26.98;95084.31;4982960;28;20021;-69
2021/04/27 10:00:27;;;;;;;6.40;4.85;;;26.80;20.60;;;22.13;26.11;95074.34;5012402;28;20026;-76
2021/04/27 10:02:52;;;;;;;9.05;5.47;;;26.60;19.90;;;22.16;27.60;95081.00;5006526;28;20129;-68
2021/04/27 10:05:19;;;;;;;8.80;5.78;;;27.10;19.80;;;22.29;27.80;95072.28;4975655;28;20038;-76
2021/04/27 10:07:44;;;;;;;8.60;5.45;;;27.40;19.30;;;22.43;27.16;95072.38;4977037;28;20109;-78
2021/04/27 10:10:12;;;;;;;12.45;6.03;;;27.70;19.10;;;22.74;26.85;95070.06;4942285;28;20046;-67
2021/04/27 10:12:39;;;;;;;8.68;5.45;;;28.40;19.30;;;22.96;26.70;95069.50;4973578;28;20123;-66
2021/04/27 10:15:06;;;;;;;14.75;5.53;;;28.60;18.50;;;22.95;26.86;95057.97;4993656;28;20030;-69
2021/04/27 10:17:33;;;;;;;9.98;5.35;;;28.80;18.30;;;23.23;26.56;95054.28;4961160;28;20043;-72
2021/04/27 10:19:59;;;;;;;8.45;5.07;;;29.40;17.80;;;23.46;26.32;95049.88;4971420;28;20054;-70
2021/04/27 10:22:28;;;;;;;7.68;6.32;;;29.60;17.10;;;23.42;26.73;95056.91;4960079;28;20153;-70
2021/04/27 10:24:55;;;;;;;10.98;7.10;;;29.60;17.40;;;23.73;26.45;95041.06;4980152;28;20046;-69